createdAt,value
2018-05-21T00:02:06.017Z,99.90
2018-05-21T00:04:35.015Z,99.90
2018-05-21T00:07:04.606Z,99.90
2018-05-21T00:09:33.787Z,99.90
2018-05-21T00:12:02.589Z,99.90
2018-05-21T00:14:32.451Z,99.90
2018-05-21T00:17:01.722Z,99.90
2018-05-21T00:19:30.713Z,99.90
2018-05-21T00:21:59.717Z,99.90
2018-05-21T00:24:29.019Z,99.90
2018-05-21T00:26:58.922Z,99.90
2018-05-21T00:29:28.018Z,99.90
2018-05-21T00:31:57.802Z,99.90
2018-05-21T00:34:26.816Z,99.90
2018-05-21T00:36:55.814Z,99.90
2018-05-21T00:39:24.934Z,99.90
2018-05-21T00:41:55.442Z,99.90
2018-05-21T00:44:25.268Z,99.90
2018-05-21T00:46:55.109Z,99.90
2018-05-21T00:49:24.124Z,99.90
2018-05-21T00:51:53.110Z,99.90
2018-05-21T00:54:22.747Z,99.90
2018-05-21T00:56:51.938Z,99.90
2018-05-21T00:59:21.038Z,99.90
2018-05-21T01:01:50.337Z,99.90
2018-05-21T01:04:19.474Z,99.90
2018-05-21T01:06:49.095Z,99.90
2018-05-21T01:09:18.455Z,99.90
2018-05-21T01:11:47.366Z,99.90
2018-05-21T01:14:17.473Z,99.90
2018-05-21T01:16:46.702Z,99.90
2018-05-21T01:19:15.838Z,99.90
2018-05-21T01:21:44.730Z,99.90
2018-05-21T01:24:14.411Z,99.90
2018-05-21T01:26:44.218Z,99.90
2018-05-21T01:29:13.209Z,99.90
2018-05-21T01:31:42.369Z,99.90
2018-05-21T01:34:12.222Z,99.90
2018-05-21T01:36:41.922Z,99.90
2018-05-21T01:39:12.402Z,99.90
2018-05-21T01:41:41.285Z,99.90
2018-05-21T01:44:12.030Z,99.90
2018-05-21T01:46:41.457Z,99.90
2018-05-21T01:49:10.723Z,99.90
2018-05-21T01:51:39.854Z,99.90
2018-05-21T01:54:09.129Z,99.90
2018-05-21T01:56:38.198Z,99.90
2018-05-21T01:59:07.189Z,99.90
2018-05-21T02:01:36.876Z,99.90
2018-05-21T02:04:05.794Z,99.90
2018-05-21T02:06:35.690Z,99.90
2018-05-21T02:09:06.690Z,99.90
2018-05-21T02:11:35.749Z,99.90
2018-05-21T02:14:04.667Z,99.90
2018-05-21T02:16:34.530Z,99.90
2018-05-21T02:19:04.411Z,99.90
2018-05-21T02:21:33.470Z,99.90
2018-05-21T02:24:03.004Z,99.90
2018-05-21T02:26:32.502Z,99.90
2018-05-21T02:29:01.503Z,99.90
2018-05-21T02:31:30.933Z,99.90
2018-05-21T02:34:00.310Z,99.90
2018-05-21T02:36:29.409Z,99.90
2018-05-21T02:38:58.851Z,99.90
2018-05-21T02:41:28.064Z,99.90
2018-05-21T02:43:57.179Z,99.90
2018-05-21T02:46:27.371Z,99.90
2018-05-21T02:48:57.209Z,99.90
2018-05-21T02:51:26.270Z,99.90
2018-05-21T02:53:55.646Z,99.90
2018-05-21T02:56:24.614Z,99.90
2018-05-21T02:58:53.629Z,99.90
2018-05-21T03:01:23.178Z,99.90
2018-05-21T03:03:53.023Z,99.90
2018-05-21T03:06:22.119Z,99.90
2018-05-21T03:08:51.331Z,99.90
2018-05-21T03:11:21.323Z,99.90
2018-05-21T03:13:51.050Z,99.90
2018-05-21T03:16:21.209Z,99.90
2018-05-21T03:18:50.370Z,99.90
2018-05-21T03:21:19.422Z,99.90
2018-05-21T03:23:48.666Z,99.90
2018-05-21T03:26:18.420Z,99.90
2018-05-21T03:28:47.421Z,99.90
2018-05-21T03:31:16.537Z,99.90
2018-05-21T03:33:45.502Z,99.90
2018-05-21T03:36:14.391Z,99.90
2018-05-21T03:38:43.592Z,99.90
2018-05-21T03:41:12.586Z,99.90
2018-05-21T03:43:41.478Z,99.90
2018-05-21T03:46:10.709Z,99.90
2018-05-21T03:48:41.838Z,99.90
2018-05-21T03:51:10.942Z,99.90
2018-05-21T03:53:40.314Z,99.90
2018-05-21T03:56:09.415Z,99.90
2018-05-21T03:58:50.092Z,99.90
2018-05-21T04:01:31.396Z,99.90
2018-05-21T04:04:00.942Z,99.90
2018-05-21T04:06:30.070Z,99.90
2018-05-21T04:08:59.238Z,99.90
2018-05-21T04:11:28.447Z,99.90
2018-05-21T04:13:58.443Z,99.90
2018-05-21T04:16:28.053Z,99.90
2018-05-21T04:18:57.406Z,99.90
2018-05-21T04:21:26.411Z,99.90
2018-05-21T04:23:55.400Z,99.90
2018-05-21T04:26:24.598Z,99.90
2018-05-21T04:28:53.595Z,99.90
2018-05-21T04:31:22.582Z,99.90
2018-05-21T04:33:51.715Z,99.90
2018-05-21T04:36:20.759Z,99.90
2018-05-21T04:38:49.777Z,99.90
2018-05-21T04:41:18.906Z,99.90
2018-05-21T04:43:48.675Z,99.90
2018-05-21T04:46:17.673Z,99.90
2018-05-21T04:48:48.095Z,99.90
2018-05-21T04:51:17.266Z,98.00
2018-05-21T04:53:46.363Z,96.20
2018-05-21T04:56:15.571Z,92.80
2018-05-21T04:58:45.571Z,94.30
2018-05-21T05:01:15.293Z,94.40
2018-05-21T05:03:44.497Z,94.40
2018-05-21T05:06:13.495Z,95.10
2018-05-21T05:08:43.491Z,94.60
2018-05-21T05:11:13.598Z,93.10
2018-05-21T05:13:42.511Z,93.00
2018-05-21T05:16:11.341Z,91.10
2018-05-21T05:18:40.478Z,90.70
2018-05-21T05:21:10.340Z,86.10
2018-05-21T05:23:39.446Z,86.00
2018-05-21T05:26:08.621Z,83.20
2018-05-21T05:28:38.389Z,85.00
2018-05-21T05:31:07.618Z,85.00
2018-05-21T05:33:36.930Z,89.00
2018-05-21T05:36:06.013Z,88.90
2018-05-21T05:38:35.057Z,88.50
2018-05-21T05:41:04.602Z,88.30
2018-05-21T05:43:33.458Z,87.40
2018-05-21T05:46:02.467Z,87.90
2018-05-21T05:48:31.781Z,86.30
2018-05-21T05:51:02.087Z,86.20
2018-05-21T05:53:32.063Z,81.10
2018-05-21T05:56:01.368Z,81.00
2018-05-21T05:58:30.367Z,78.80
2018-05-21T06:00:59.362Z,79.00
2018-05-21T06:03:29.042Z,76.20
2018-05-21T06:05:58.806Z,75.00
2018-05-21T06:08:27.797Z,75.00
2018-05-21T06:10:57.078Z,73.30
2018-05-21T06:13:27.050Z,70.30
2018-05-21T06:15:56.937Z,69.90
2018-05-21T06:18:25.902Z,69.80
2018-05-21T06:20:54.893Z,69.70
2018-05-21T06:23:24.130Z,69.90
2018-05-21T06:25:53.979Z,72.50
2018-05-21T06:28:22.998Z,72.30
2018-05-21T06:30:52.335Z,70.20
2018-05-21T06:33:21.435Z,68.20
2018-05-21T06:35:50.501Z,68.70
2018-05-21T06:38:21.135Z,65.10
2018-05-21T06:40:50.138Z,65.20
2018-05-21T06:43:20.101Z,65.00
2018-05-21T06:45:49.598Z,65.00
2018-05-21T06:48:18.650Z,67.80
2018-05-21T06:50:47.651Z,65.20
2018-05-21T06:53:19.211Z,56.00
2018-05-21T06:55:49.015Z,54.40
2018-05-21T06:58:18.115Z,54.40
2018-05-21T07:00:48.439Z,50.70
2018-05-21T07:03:17.547Z,50.60
2018-05-21T07:05:47.431Z,60.90
2018-05-21T07:08:16.741Z,61.50
2018-05-21T07:10:45.849Z,70.40
2018-05-21T07:13:14.981Z,76.40
2018-05-21T07:15:44.458Z,80.50
2018-05-21T07:18:13.594Z,80.70
2018-05-21T07:20:43.289Z,87.00
2018-05-21T07:23:13.178Z,91.60
2018-05-21T07:25:43.152Z,94.30
2018-05-21T07:28:13.075Z,95.80
2018-05-21T07:30:42.033Z,95.80
2018-05-21T07:33:11.025Z,95.00
2018-05-21T07:35:40.261Z,95.00
2018-05-21T07:38:10.040Z,96.50
2018-05-21T07:40:39.038Z,96.40
2018-05-21T07:43:08.231Z,96.50
2018-05-21T07:45:37.194Z,97.70
2018-05-21T07:48:06.290Z,97.30
2018-05-21T07:50:35.521Z,98.10
2018-05-21T07:53:04.596Z,98.90
2018-05-21T07:55:35.854Z,99.60
2018-05-21T07:58:05.121Z,99.60
2018-05-21T08:00:34.959Z,99.90
2018-05-21T08:03:04.192Z,99.90
2018-05-21T08:05:33.179Z,98.60
2018-05-21T08:08:02.174Z,97.80
2018-05-21T08:10:31.414Z,96.30
2018-05-21T08:13:01.258Z,96.10
2018-05-21T08:15:31.007Z,96.00
2018-05-21T08:18:00.230Z,96.00
2018-05-21T08:20:29.453Z,97.10
2018-05-21T08:22:58.629Z,96.10
2018-05-21T08:25:28.078Z,97.50
2018-05-21T08:27:57.178Z,99.20
2018-05-21T08:30:27.141Z,99.90
2018-05-21T08:32:56.513Z,99.90
2018-05-21T08:35:25.511Z,99.90
2018-05-21T08:37:54.582Z,99.90
2018-05-21T08:40:24.401Z,99.90
2018-05-21T08:42:53.577Z,99.90
2018-05-21T08:45:22.750Z,99.90
2018-05-21T08:47:53.739Z,99.90
2018-05-21T08:50:23.733Z,99.90
2018-05-21T08:52:52.910Z,99.90
2018-05-21T08:55:22.179Z,99.90
2018-05-21T08:57:52.476Z,99.90
2018-05-21T09:00:21.656Z,99.90
2018-05-21T09:02:50.693Z,99.90
2018-05-21T09:05:19.692Z,99.90
2018-05-21T09:07:48.861Z,99.90
2018-05-21T09:10:17.867Z,99.90
2018-05-21T09:12:47.860Z,99.90
2018-05-21T09:15:17.838Z,99.90
2018-05-21T09:17:46.825Z,99.90
2018-05-21T09:20:15.820Z,99.90
2018-05-21T09:22:45.181Z,99.90
2018-05-21T09:25:14.451Z,99.90
2018-05-21T09:27:43.641Z,99.90
2018-05-21T09:30:12.913Z,99.90
2018-05-21T09:32:42.010Z,99.90
2018-05-21T09:35:11.107Z,99.90
2018-05-21T09:37:40.283Z,99.90
2018-05-21T09:40:09.198Z,99.90
2018-05-21T09:42:38.275Z,99.90
2018-05-21T09:45:07.576Z,99.90
2018-05-21T09:47:37.442Z,99.90
2018-05-21T09:50:06.582Z,99.90
2018-05-21T09:52:35.815Z,99.90
2018-05-21T09:55:04.815Z,99.90
2018-05-21T09:57:33.902Z,99.90
2018-05-21T10:00:05.054Z,99.90
2018-05-21T10:02:34.050Z,99.90
2018-05-21T10:05:03.047Z,99.90
2018-05-21T10:07:32.378Z,99.90
2018-05-21T10:10:02.155Z,99.90
2018-05-21T10:12:31.247Z,99.90
2018-05-21T10:15:00.391Z,99.90
2018-05-21T10:17:29.261Z,99.90
2018-05-21T10:19:58.315Z,99.90
2018-05-21T10:22:28.559Z,99.90
2018-05-21T10:24:57.654Z,99.90
2018-05-21T10:27:27.345Z,99.90
2018-05-21T10:29:56.726Z,99.90
2018-05-21T10:32:25.898Z,99.90
2018-05-21T10:34:56.805Z,99.90
2018-05-21T10:37:25.902Z,99.90
2018-05-21T10:39:55.075Z,99.90
2018-05-21T10:42:25.085Z,99.90
2018-05-21T10:44:54.842Z,99.90
2018-05-21T10:47:23.802Z,99.90
2018-05-21T10:49:52.943Z,99.90
2018-05-21T10:52:21.921Z,99.90
2018-05-21T10:54:50.925Z,99.90
2018-05-21T10:57:20.146Z,99.90
2018-05-21T10:59:49.993Z,99.90
2018-05-21T11:02:20.310Z,99.90
2018-05-21T11:04:51.162Z,99.40
2018-05-21T11:07:20.295Z,99.90
2018-05-21T11:09:49.805Z,99.90
2018-05-21T11:12:18.865Z,99.90
2018-05-21T11:14:47.894Z,99.90
2018-05-21T11:17:17.033Z,99.90
2018-05-21T11:19:45.983Z,99.90
2018-05-21T11:22:14.983Z,99.90
2018-05-21T11:24:44.127Z,99.90
2018-05-21T11:27:13.950Z,99.90
2018-05-21T11:29:44.699Z,99.90
2018-05-21T11:32:14.693Z,99.90
2018-05-21T11:34:43.869Z,99.90
2018-05-21T11:37:13.219Z,99.90
2018-05-21T11:39:42.804Z,99.90
2018-05-21T11:42:11.750Z,99.90
2018-05-21T11:44:40.974Z,99.90
2018-05-21T11:47:09.895Z,99.90
2018-05-21T11:49:38.829Z,99.90
2018-05-21T11:52:08.175Z,99.90
2018-05-21T11:54:37.091Z,99.90
2018-05-21T11:57:06.019Z,99.90
2018-05-21T11:59:35.337Z,99.90
2018-05-21T12:02:06.077Z,99.90
2018-05-21T12:04:36.891Z,99.90
2018-05-21T12:07:06.089Z,99.90
2018-05-21T12:09:35.163Z,99.90
2018-05-21T12:12:04.601Z,99.90
2018-05-21T12:14:33.656Z,99.90
2018-05-21T12:17:02.749Z,99.90
2018-05-21T12:19:33.004Z,99.90
2018-05-21T12:22:02.278Z,99.90
2018-05-21T12:24:31.709Z,99.90
2018-05-21T12:27:00.807Z,99.90
2018-05-21T12:29:29.801Z,99.90
2018-05-21T12:31:59.522Z,99.90
2018-05-21T12:34:28.745Z,99.90
2018-05-21T12:36:57.868Z,99.90
2018-05-21T12:39:27.044Z,99.90
2018-05-21T12:41:56.522Z,99.90
2018-05-21T12:44:25.613Z,99.90
2018-05-21T12:46:54.760Z,99.90
2018-05-21T12:49:24.231Z,99.90
2018-05-21T12:51:53.218Z,99.90
2018-05-21T12:54:22.214Z,99.90
2018-05-21T12:56:51.410Z,99.90
2018-05-21T12:59:20.494Z,99.90
2018-05-21T13:01:49.453Z,99.90
2018-05-21T13:04:18.956Z,99.90
2018-05-21T13:06:50.771Z,99.90
2018-05-21T13:09:19.849Z,99.90
2018-05-21T13:11:49.654Z,99.90
2018-05-21T13:14:18.746Z,99.90
2018-05-21T13:16:48.858Z,99.90
2018-05-21T13:19:17.953Z,99.90
2018-05-21T13:21:46.949Z,99.90
2018-05-21T13:24:16.332Z,99.90
2018-05-21T13:26:46.360Z,99.90
2018-05-21T13:29:15.530Z,99.90
2018-05-21T13:31:45.185Z,99.90
2018-05-21T13:34:14.178Z,99.90
2018-05-21T13:36:43.178Z,99.90
2018-05-21T13:39:13.426Z,99.90
2018-05-21T13:41:42.522Z,99.90
2018-05-21T13:44:11.413Z,99.90
2018-05-21T13:46:40.800Z,99.90
2018-05-21T13:49:10.761Z,99.90
2018-05-21T13:51:39.903Z,99.90
2018-05-21T13:54:09.207Z,99.90
2018-05-21T13:56:38.310Z,99.90
2018-05-21T13:59:07.407Z,99.90
2018-05-21T14:01:36.638Z,99.90
2018-05-21T14:04:05.701Z,99.90
2018-05-21T14:06:35.609Z,99.90
2018-05-21T14:09:06.367Z,99.90
2018-05-21T14:11:35.470Z,99.90
2018-05-21T14:14:04.634Z,99.90
2018-05-21T14:16:34.123Z,99.90
2018-05-21T14:19:02.842Z,99.90
2018-05-21T14:21:31.914Z,99.90
2018-05-21T14:24:01.602Z,99.90
2018-05-21T14:26:31.390Z,99.90
2018-05-21T14:29:00.463Z,99.90
2018-05-21T14:31:29.653Z,99.90
2018-05-21T14:33:58.749Z,99.90
2018-05-21T14:36:27.881Z,99.90
2018-05-21T14:38:57.082Z,99.90
2018-05-21T14:41:27.353Z,99.90
2018-05-21T14:43:56.173Z,99.90
2018-05-21T14:46:25.666Z,99.90
2018-05-21T14:48:54.561Z,99.90
2018-05-21T14:51:23.600Z,99.90
2018-05-21T14:53:52.694Z,99.90
2018-05-21T14:56:21.221Z,99.90
2018-05-21T14:58:50.027Z,99.90
2018-05-21T15:01:19.366Z,99.90
2018-05-21T15:03:48.322Z,99.90
2018-05-21T15:06:17.417Z,99.90
2018-05-21T15:08:46.547Z,99.90
2018-05-21T15:11:16.643Z,99.90
2018-05-21T15:13:45.163Z,99.90
2018-05-21T15:16:14.618Z,99.90
2018-05-21T15:18:43.815Z,99.90
2018-05-21T15:21:12.921Z,99.90
2018-05-21T15:23:42.500Z,99.90
2018-05-21T15:26:11.530Z,99.90
2018-05-21T15:28:41.428Z,99.90
2018-05-21T15:31:10.874Z,99.90
2018-05-21T15:33:39.927Z,99.90
2018-05-21T15:36:10.152Z,99.90
2018-05-21T15:38:39.361Z,99.90
2018-05-21T15:41:08.254Z,99.90
2018-05-21T15:43:37.354Z,99.90
2018-05-21T15:46:07.204Z,99.90
2018-05-21T15:48:36.239Z,99.90
2018-05-21T15:51:05.146Z,99.90
2018-05-21T15:53:34.237Z,99.90
2018-05-21T15:56:03.191Z,99.90
2018-05-21T15:58:33.125Z,99.90
2018-05-21T16:01:02.394Z,99.90
2018-05-21T16:03:31.390Z,99.90
2018-05-21T16:06:00.487Z,99.90
2018-05-21T16:08:29.844Z,99.90
2018-05-21T16:10:58.858Z,99.90
2018-05-21T16:13:29.801Z,99.90
2018-05-21T16:16:00.174Z,99.90
2018-05-21T16:18:29.217Z,99.90
2018-05-21T16:20:58.218Z,99.90
2018-05-21T16:23:27.441Z,99.90
2018-05-21T16:25:56.344Z,99.90
2018-05-21T16:28:25.204Z,99.90
2018-05-21T16:30:55.316Z,99.90
2018-05-21T16:33:24.409Z,99.90
2018-05-21T16:35:53.505Z,99.90
2018-05-21T16:38:22.818Z,99.90
2018-05-21T16:40:51.814Z,99.90
2018-05-21T16:43:20.830Z,99.90
2018-05-21T16:45:50.305Z,99.90
2018-05-21T16:48:19.202Z,99.90
2018-05-21T16:50:48.199Z,99.90
2018-05-21T16:53:17.535Z,99.90
2018-05-21T16:55:46.585Z,99.90
2018-05-21T16:58:15.504Z,99.90
2018-05-21T17:00:45.618Z,99.90
2018-05-21T17:03:14.864Z,99.90
2018-05-21T17:05:43.904Z,99.90
2018-05-21T17:08:13.305Z,99.90
2018-05-21T17:10:42.307Z,99.90
2018-05-21T17:13:11.302Z,99.90
2018-05-21T17:15:42.204Z,99.90
2018-05-21T17:18:11.942Z,99.90
2018-05-21T17:20:41.105Z,99.90
2018-05-21T17:23:10.965Z,99.90
2018-05-21T17:25:40.802Z,99.90
2018-05-21T17:28:10.484Z,99.90
2018-05-21T17:30:40.557Z,99.90
2018-05-21T17:33:09.602Z,99.90
2018-05-21T17:35:39.242Z,99.90
2018-05-21T17:38:08.477Z,99.90
2018-05-21T17:40:37.692Z,99.90
2018-05-21T17:43:06.969Z,99.90
2018-05-21T17:45:35.570Z,99.90
2018-05-21T17:48:04.950Z,99.90
2018-05-21T17:50:33.395Z,99.90
2018-05-21T17:53:02.369Z,99.90
2018-05-21T17:55:30.990Z,99.90
2018-05-21T17:58:00.059Z,99.90
2018-05-21T18:00:30.205Z,99.90
2018-05-21T18:02:59.315Z,99.90
2018-05-21T18:05:28.824Z,99.90
2018-05-21T18:07:58.155Z,99.90
2018-05-21T18:10:27.010Z,99.90
2018-05-21T18:12:55.974Z,99.90
2018-05-21T18:15:26.118Z,99.90
2018-05-21T18:17:56.411Z,99.90
2018-05-21T18:20:26.171Z,99.90
2018-05-21T18:22:55.503Z,99.90
2018-05-21T18:25:24.463Z,99.90
2018-05-21T18:27:53.458Z,99.90
2018-05-21T18:30:22.790Z,99.90
2018-05-21T18:32:52.557Z,99.90
2018-05-21T18:35:22.242Z,99.90
2018-05-21T18:37:51.378Z,99.90
2018-05-21T18:40:20.321Z,99.90
2018-05-21T18:42:49.227Z,99.90
2018-05-21T18:45:18.309Z,99.90
2018-05-21T18:47:47.263Z,99.90
2018-05-21T18:50:16.355Z,99.90
2018-05-21T18:52:45.586Z,99.90
2018-05-21T18:55:14.701Z,99.90
2018-05-21T18:57:43.595Z,99.90
2018-05-21T19:00:12.751Z,99.90
2018-05-21T19:02:41.506Z,99.90
2018-05-21T19:05:11.406Z,99.90
2018-05-21T19:07:40.722Z,99.90
2018-05-21T19:10:10.406Z,99.90
2018-05-21T19:12:39.302Z,99.90
2018-05-21T19:15:08.419Z,99.90
2018-05-21T19:17:38.353Z,99.90
2018-05-21T19:20:08.202Z,99.90
2018-05-21T19:22:37.778Z,99.90
2018-05-21T19:25:06.845Z,99.90
2018-05-21T19:27:36.746Z,99.90
2018-05-21T19:30:06.023Z,99.90
2018-05-21T19:32:35.144Z,99.90
2018-05-21T19:35:04.605Z,99.90
2018-05-21T19:37:33.862Z,99.90
2018-05-21T19:40:02.962Z,99.90
2018-05-21T19:42:32.085Z,99.90
2018-05-21T19:45:01.262Z,99.90
2018-05-21T19:47:31.234Z,99.90
2018-05-21T19:50:00.436Z,99.90
2018-05-21T19:52:29.927Z,99.90
2018-05-21T19:54:58.908Z,99.90
2018-05-21T19:57:27.874Z,99.90
2018-05-21T19:59:57.176Z,99.90
2018-05-21T20:02:26.176Z,99.90
2018-05-21T20:04:55.165Z,99.90
2018-05-21T20:07:25.237Z,99.90
2018-05-21T20:09:54.305Z,99.90
2018-05-21T20:12:23.302Z,99.90
2018-05-21T20:14:52.515Z,99.90
2018-05-21T20:17:21.494Z,99.90
2018-05-21T20:19:51.015Z,99.90
2018-05-21T20:22:21.502Z,99.90
2018-05-21T20:24:50.499Z,99.90
2018-05-21T20:27:19.541Z,99.90
2018-05-21T20:29:48.658Z,99.90
2018-05-21T20:32:18.504Z,99.90
2018-05-21T20:34:47.531Z,99.90
2018-05-21T20:37:17.054Z,99.90
2018-05-21T20:39:46.137Z,99.90
2018-05-21T20:42:15.134Z,99.90
2018-05-21T20:44:44.566Z,99.90
2018-05-21T20:47:13.758Z,99.90
2018-05-21T20:49:42.856Z,99.90
2018-05-21T20:52:12.046Z,99.90
2018-05-21T20:54:41.118Z,99.90
2018-05-21T20:57:10.222Z,99.90
2018-05-21T20:59:39.597Z,99.90
2018-05-21T21:02:08.615Z,99.90
2018-05-21T21:04:37.581Z,99.90
2018-05-21T21:07:06.819Z,99.90
2018-05-21T21:09:35.891Z,99.90
2018-05-21T21:12:04.917Z,99.90
2018-05-21T21:14:34.145Z,99.90
2018-05-21T21:17:03.986Z,99.90
2018-05-21T21:19:33.014Z,99.90
2018-05-21T21:22:02.294Z,99.90
2018-05-21T21:24:32.643Z,99.90
2018-05-21T21:27:02.491Z,99.90
2018-05-21T21:29:32.166Z,99.90
2018-05-21T21:32:01.574Z,99.90
2018-05-21T21:34:30.779Z,99.90
2018-05-21T21:36:59.735Z,99.90
2018-05-21T21:39:28.739Z,99.90
2018-05-21T21:41:57.657Z,99.90
2018-05-21T21:44:26.542Z,99.90
2018-05-21T21:46:55.538Z,99.90
2018-05-21T21:49:24.710Z,99.90
2018-05-21T21:51:53.532Z,99.90
2018-05-21T21:54:22.622Z,99.90
2018-05-21T21:56:51.834Z,99.90
2018-05-21T21:59:20.721Z,99.90
2018-05-21T22:01:50.281Z,99.90
2018-05-21T22:04:19.357Z,99.90
2018-05-21T22:06:48.225Z,99.90
2018-05-21T22:09:17.078Z,99.90
2018-05-21T22:11:47.005Z,99.90
2018-05-21T22:14:16.187Z,99.90
2018-05-21T22:16:45.838Z,99.90
2018-05-21T22:19:15.381Z,99.90
2018-05-21T22:21:45.122Z,99.90
2018-05-21T22:24:13.946Z,99.90
2018-05-21T22:26:44.785Z,99.90
2018-05-21T22:29:13.773Z,99.90
2018-05-21T22:31:43.537Z,99.90
2018-05-21T22:34:12.850Z,99.90
2018-05-21T22:36:41.741Z,99.90
2018-05-21T22:39:10.424Z,99.90
2018-05-21T22:41:40.284Z,99.90
2018-05-21T22:44:09.497Z,99.90
2018-05-21T22:46:38.587Z,99.90
2018-05-21T22:49:07.442Z,99.90
2018-05-21T22:51:36.258Z,99.90
2018-05-21T22:54:05.256Z,99.90
2018-05-21T22:56:34.698Z,99.90
2018-05-21T22:59:03.422Z,99.90
2018-05-21T23:01:32.519Z,99.90
2018-05-21T23:04:02.629Z,99.90
2018-05-21T23:06:31.659Z,99.90
2018-05-21T23:09:00.753Z,99.90
2018-05-21T23:11:29.966Z,99.90
2018-05-21T23:13:59.130Z,99.90
2018-05-21T23:16:28.223Z,99.90
2018-05-21T23:18:58.266Z,99.90
2018-05-21T23:21:27.366Z,99.90
2018-05-21T23:23:56.358Z,99.90
2018-05-21T23:26:25.458Z,99.90
2018-05-21T23:28:55.019Z,99.90
2018-05-21T23:31:23.962Z,99.90
2018-05-21T23:33:53.090Z,99.90
2018-05-21T23:36:22.866Z,99.90
2018-05-21T23:38:51.936Z,99.90
2018-05-21T23:41:21.139Z,99.90
2018-05-21T23:43:50.138Z,99.90
2018-05-21T23:46:19.231Z,99.90
2018-05-21T23:48:49.373Z,99.90
2018-05-21T23:51:18.472Z,99.90
2018-05-21T23:53:47.371Z,99.90
2018-05-21T23:56:16.982Z,99.90
2018-05-21T23:58:46.046Z,99.90
